createdAt,value
2019-05-30T00:02:05.889Z,101787.91
2019-05-30T00:04:36.503Z,101788.77
2019-05-30T00:07:06.201Z,101782.23
2019-05-30T00:09:35.803Z,101775.25
2019-05-30T00:12:05.476Z,101779.41
2019-05-30T00:14:35.082Z,101779.03
2019-05-30T00:17:05.124Z,101772.87
2019-05-30T00:19:35.074Z,101780.22
2019-05-30T00:22:05.692Z,101774.92
2019-05-30T00:24:35.275Z,101783.64
2019-05-30T00:27:04.936Z,101770.52
2019-05-30T00:29:34.534Z,101777.10
2019-05-30T00:32:04.905Z,101766.41
2019-05-30T00:34:34.897Z,101764.35
2019-05-30T00:37:05.960Z,101770.90
2019-05-30T00:39:37.476Z,101777.06
2019-05-30T00:42:07.355Z,101770.03
2019-05-30T00:44:36.948Z,101775.75
2019-05-30T00:47:06.544Z,101779.45
2019-05-30T00:49:36.143Z,101777.80
2019-05-30T00:52:06.802Z,101772.45
2019-05-30T00:54:36.606Z,101773.27
2019-05-30T00:57:07.002Z,101770.39
2019-05-30T00:59:36.758Z,101776.16
2019-05-30T01:02:06.995Z,101773.64
2019-05-30T01:04:36.924Z,101776.85
2019-05-30T01:07:07.189Z,101771.91
2019-05-30T01:09:37.284Z,101770.67
2019-05-30T01:12:07.514Z,101779.31
2019-05-30T01:14:37.212Z,101769.03
2019-05-30T01:17:07.360Z,101765.34
2019-05-30T01:19:37.852Z,101775.62
2019-05-30T01:22:07.747Z,101778.12
2019-05-30T01:24:37.589Z,101774.42
2019-05-30T01:27:07.602Z,101777.30
2019-05-30T01:29:37.465Z,101781.38
2019-05-30T01:32:25.062Z,101782.61
2019-05-30T01:34:54.645Z,101780.18
2019-05-30T01:37:24.240Z,101780.55
2019-05-30T01:39:54.303Z,101780.55
2019-05-30T01:42:23.896Z,101782.61
2019-05-30T01:44:53.493Z,101784.67
2019-05-30T01:47:23.675Z,101786.76
2019-05-30T01:49:53.278Z,101784.30
2019-05-30T01:52:22.865Z,101786.36
2019-05-30T01:54:52.500Z,101786.80
2019-05-30T01:57:22.085Z,101792.11
2019-05-30T01:59:51.721Z,101788.82
2019-05-30T02:02:21.378Z,101784.30
2019-05-30T02:04:50.972Z,101781.00
2019-05-30T02:07:20.581Z,101775.66
2019-05-30T02:09:50.206Z,101778.12
2019-05-30T02:12:19.938Z,101777.67
2019-05-30T02:14:49.526Z,101778.12
2019-05-30T02:17:19.230Z,101781.00
2019-05-30T02:19:48.825Z,101781.80
2019-05-30T02:22:18.429Z,101781.00
2019-05-30T02:24:48.018Z,101779.36
2019-05-30T02:27:17.654Z,101772.00
2019-05-30T02:29:47.953Z,101776.94
2019-05-30T02:32:17.574Z,101768.75
2019-05-30T02:34:47.166Z,101777.34
2019-05-30T02:37:16.761Z,101779.36
2019-05-30T02:39:46.430Z,101785.12
2019-05-30T02:42:16.019Z,101781.84
2019-05-30T02:44:45.610Z,101786.80
2019-05-30T02:47:15.473Z,101789.23
2019-05-30T02:49:45.069Z,101788.86
2019-05-30T02:52:14.666Z,101804.08
2019-05-30T02:54:44.257Z,101792.98
2019-05-30T02:57:13.865Z,101797.91
2019-05-30T02:59:43.456Z,101801.23
2019-05-30T03:02:16.839Z,101799.97
2019-05-30T03:04:44.367Z,101797.50
2019-05-30T03:07:14.836Z,101804.87
2019-05-30T03:09:44.805Z,101801.95
2019-05-30T03:12:14.484Z,101808.15
2019-05-30T03:14:44.162Z,101802.77
2019-05-30T03:17:14.673Z,101808.52
2019-05-30T03:19:44.651Z,101813.46
2019-05-30T03:22:14.242Z,101811.81
2019-05-30T03:24:43.856Z,101814.69
2019-05-30T03:27:14.329Z,101812.59
2019-05-30T03:29:44.162Z,101804.41
2019-05-30T03:33:00.143Z,101806.84
2019-05-30T03:34:47.218Z,101801.91
2019-05-30T03:37:28.098Z,101807.66
2019-05-30T03:39:48.285Z,101807.66
2019-05-30T03:42:18.069Z,101812.18
2019-05-30T03:44:47.657Z,101815.06
2019-05-30T03:47:18.634Z,101812.18
2019-05-30T03:49:50.746Z,101811.81
2019-05-30T03:52:22.796Z,101817.56
2019-05-30T03:54:54.190Z,101812.59
2019-05-30T03:57:32.800Z,101827.40
2019-05-30T04:00:10.758Z,101813.83
2019-05-30T04:02:59.397Z,101821.19
2019-05-30T04:05:32.544Z,101825.72
2019-05-30T04:08:06.652Z,101819.95
2019-05-30T04:10:39.542Z,101817.03
2019-05-30T04:13:21.293Z,101826.05
2019-05-30T04:15:50.952Z,101828.11
2019-05-30T04:18:20.572Z,101833.49
2019-05-30T04:20:50.158Z,101832.63
2019-05-30T04:23:19.762Z,101833.45
2019-05-30T04:25:49.391Z,101847.84
2019-05-30T04:28:19.071Z,101841.27
2019-05-30T04:30:48.658Z,101845.83
2019-05-30T04:33:32.689Z,101853.20
2019-05-30T04:35:51.446Z,101848.27
2019-05-30T04:38:21.049Z,101841.68
2019-05-30T04:40:50.642Z,101854.02
2019-05-30T04:43:20.484Z,101854.02
2019-05-30T04:45:50.206Z,101851.55
2019-05-30T04:48:21.286Z,101856.48
2019-05-30T04:50:51.245Z,101859.36
2019-05-30T04:53:21.232Z,101851.55
2019-05-30T04:55:50.992Z,101858.92
2019-05-30T04:58:23.875Z,101854.80
2019-05-30T05:00:52.080Z,101859.73
2019-05-30T05:03:43.562Z,101857.27
2019-05-30T05:05:53.193Z,101857.68
2019-05-30T05:08:22.826Z,101859.33
2019-05-30T05:10:52.416Z,101863.02
2019-05-30T05:13:22.652Z,101862.20
2019-05-30T05:15:52.557Z,101865.91
2019-05-30T05:18:23.372Z,101874.55
2019-05-30T05:20:53.629Z,101879.03
2019-05-30T05:23:23.633Z,101874.09
2019-05-30T05:26:00.898Z,101887.59
2019-05-30T05:28:25.266Z,101885.13
2019-05-30T05:30:54.853Z,101889.28
2019-05-30T05:33:24.858Z,101888.45
2019-05-30T05:35:54.483Z,101887.22
2019-05-30T05:38:24.436Z,101889.66
2019-05-30T05:40:54.195Z,101892.11
2019-05-30T05:43:24.475Z,101887.97
2019-05-30T05:45:54.403Z,101893.73
2019-05-30T05:48:24.755Z,101894.99
2019-05-30T05:50:54.498Z,101906.52
2019-05-30T05:53:25.081Z,101902.81
2019-05-30T05:55:55.001Z,101900.35
2019-05-30T05:58:26.408Z,101903.23
2019-05-30T06:00:56.370Z,101912.20
2019-05-30T06:03:25.967Z,101912.98
2019-05-30T06:05:55.804Z,101909.57
2019-05-30T06:08:25.907Z,101912.45
2019-05-30T06:10:55.693Z,101909.97
2019-05-30T06:13:25.293Z,101907.45
2019-05-30T06:15:54.900Z,101913.63
2019-05-30T06:18:24.595Z,101903.66
2019-05-30T06:20:54.194Z,101908.11
2019-05-30T06:23:23.877Z,101903.56
2019-05-30T06:25:53.463Z,101902.75
2019-05-30T06:28:24.173Z,101903.98
2019-05-30T06:30:54.011Z,101896.98
2019-05-30T06:33:24.898Z,101891.54
2019-05-30T06:35:54.817Z,101901.42
2019-05-30T06:38:25.286Z,101908.06
2019-05-30T06:40:54.978Z,101906.81
2019-05-30T06:43:26.143Z,101919.17
2019-05-30T06:45:55.792Z,101904.21
2019-05-30T06:48:26.792Z,101912.71
2019-05-30T06:50:56.757Z,101910.31
2019-05-30T06:53:27.280Z,101911.86
2019-05-30T06:55:57.023Z,101912.18
2019-05-30T06:58:41.436Z,101911.36
2019-05-30T07:00:58.092Z,101910.55
2019-05-30T07:03:28.481Z,101916.59
2019-05-30T07:05:59.077Z,101907.37
2019-05-30T07:08:29.272Z,101913.30
2019-05-30T07:10:58.905Z,101908.23
2019-05-30T07:13:29.235Z,101910.84
2019-05-30T07:15:59.000Z,101911.20
2019-05-30T07:18:33.200Z,101906.02
2019-05-30T07:21:00.199Z,101901.84
2019-05-30T07:23:30.225Z,101910.16
2019-05-30T07:26:03.354Z,101900.61
2019-05-30T07:28:32.099Z,101907.34
2019-05-30T07:31:01.823Z,101901.81
2019-05-30T07:33:32.918Z,101894.99
2019-05-30T07:36:02.626Z,101889.86
2019-05-30T07:38:32.619Z,101895.89
2019-05-30T07:41:02.898Z,101896.46
2019-05-30T07:43:33.520Z,101896.08
2019-05-30T07:46:03.176Z,101889.34
2019-05-30T07:48:32.841Z,101896.23
2019-05-30T07:51:02.570Z,101904.02
2019-05-30T07:53:32.797Z,101891.64
2019-05-30T07:56:02.622Z,101892.31
2019-05-30T07:58:33.362Z,101896.21
2019-05-30T08:01:03.662Z,101894.87
2019-05-30T08:03:34.706Z,101897.83
2019-05-30T08:06:04.787Z,101889.69
2019-05-30T08:08:34.383Z,101890.45
2019-05-30T08:11:09.482Z,101881.04
2019-05-30T08:13:35.381Z,101883.92
2019-05-30T08:16:05.050Z,101874.23
2019-05-30T08:18:35.846Z,101877.25
2019-05-30T08:21:05.708Z,101873.64
2019-05-30T08:23:36.309Z,101873.07
2019-05-30T08:26:05.931Z,101863.57
2019-05-30T08:28:36.379Z,101860.71
2019-05-30T08:31:06.051Z,101854.18
2019-05-30T08:33:37.632Z,101865.72
2019-05-30T08:36:07.459Z,101867.87
2019-05-30T08:38:37.450Z,101858.39
2019-05-30T08:41:07.231Z,101864.64
2019-05-30T08:43:37.572Z,101865.09
2019-05-30T08:46:07.709Z,101861.81
2019-05-30T08:48:38.308Z,101865.97
2019-05-30T08:51:08.126Z,101863.14
2019-05-30T08:53:38.446Z,101856.19
2019-05-30T08:56:08.291Z,101857.48
2019-05-30T08:58:38.780Z,101859.07
2019-05-30T09:01:08.701Z,101853.30
2019-05-30T09:03:38.557Z,101857.42
2019-05-30T09:06:08.530Z,101847.14
2019-05-30T09:08:38.161Z,101846.34
2019-05-30T09:11:07.724Z,101839.76
2019-05-30T09:13:38.823Z,101844.25
2019-05-30T09:16:08.579Z,101843.01
2019-05-30T09:18:39.966Z,101849.66
2019-05-30T09:21:09.736Z,101836.11
2019-05-30T09:23:40.998Z,101842.80
2019-05-30T09:26:10.905Z,101839.50
2019-05-30T09:28:41.179Z,101827.09
2019-05-30T09:31:11.941Z,101827.46
2019-05-30T09:33:42.734Z,101830.71
2019-05-30T09:36:13.855Z,101830.71
2019-05-30T09:38:45.302Z,101830.77
2019-05-30T09:41:15.319Z,101829.98
2019-05-30T09:43:46.325Z,101823.76
2019-05-30T09:46:16.348Z,101827.46
2019-05-30T09:48:46.743Z,101834.41
2019-05-30T09:51:16.525Z,101824.95
2019-05-30T09:53:46.139Z,101827.88
2019-05-30T09:56:15.821Z,101823.34
2019-05-30T09:58:46.035Z,101830.34
2019-05-30T10:01:16.193Z,101817.57
2019-05-30T10:03:46.499Z,101815.05
2019-05-30T10:06:28.485Z,101818.75
2019-05-30T10:08:49.494Z,101819.58
2019-05-30T10:11:19.524Z,101821.70
2019-05-30T10:13:51.153Z,101822.57
2019-05-30T10:16:22.479Z,101821.33
2019-05-30T10:18:52.854Z,101820.88
2019-05-30T10:21:22.546Z,101817.98
2019-05-30T10:23:53.589Z,101821.75
2019-05-30T10:26:23.653Z,101813.47
2019-05-30T10:28:53.430Z,101811.91
2019-05-30T10:31:23.121Z,101813.97
2019-05-30T10:33:53.290Z,101800.02
2019-05-30T10:36:23.087Z,101806.20
2019-05-30T10:38:53.823Z,101805.78
2019-05-30T10:41:23.801Z,101809.91
2019-05-30T10:43:53.406Z,101806.66
2019-05-30T10:46:23.002Z,101789.78
2019-05-30T10:48:52.798Z,101796.73
2019-05-30T10:51:22.494Z,101793.03
2019-05-30T10:53:52.706Z,101789.36
2019-05-30T10:56:23.566Z,101791.42
2019-05-30T10:58:53.160Z,101791.84
2019-05-30T11:01:23.204Z,101778.25
2019-05-30T11:03:52.797Z,101786.08
2019-05-30T11:06:34.502Z,101780.31
2019-05-30T11:09:05.898Z,101770.42
2019-05-30T11:11:35.496Z,101765.91
2019-05-30T11:14:05.622Z,101769.23
2019-05-30T11:16:35.216Z,101769.23
2019-05-30T11:19:07.534Z,101760.14
2019-05-30T11:21:36.556Z,101756.80
2019-05-30T11:24:06.258Z,101762.21
2019-05-30T11:26:35.850Z,101756.23
2019-05-30T11:29:06.121Z,101758.19
2019-05-30T11:31:35.723Z,101753.61
2019-05-30T11:34:05.769Z,101742.39
2019-05-30T11:36:35.359Z,101756.42
2019-05-30T11:39:06.833Z,101750.69
2019-05-30T11:41:36.440Z,101754.73
2019-05-30T11:44:06.172Z,101755.81
2019-05-30T11:46:35.764Z,101748.78
2019-05-30T11:49:05.435Z,101747.38
2019-05-30T11:51:35.031Z,101750.22
2019-05-30T11:54:04.689Z,101747.28
2019-05-30T11:56:34.275Z,101748.17
2019-05-30T11:59:03.874Z,101743.66
2019-05-30T12:01:33.465Z,101736.30
2019-05-30T12:04:03.056Z,101734.27
2019-05-30T12:06:32.649Z,101733.03
2019-05-30T12:09:02.250Z,101728.44
2019-05-30T12:11:31.919Z,101724.28
2019-05-30T12:14:01.643Z,101720.16
2019-05-30T12:16:31.465Z,101713.52
2019-05-30T12:19:01.907Z,101714.87
2019-05-30T12:21:31.685Z,101714.83
2019-05-30T12:24:02.633Z,101711.59
2019-05-30T12:26:33.938Z,101712.09
2019-05-30T12:29:04.254Z,101719.92
2019-05-30T12:31:33.843Z,101715.48
2019-05-30T12:34:03.445Z,101708.71
2019-05-30T12:36:33.110Z,101698.97
2019-05-30T12:39:02.854Z,101704.23
2019-05-30T12:41:32.520Z,101692.08
2019-05-30T12:44:03.260Z,101687.73
2019-05-30T12:46:33.344Z,101686.57
2019-05-30T12:49:03.697Z,101694.23
2019-05-30T12:51:33.344Z,101688.92
2019-05-30T12:54:02.925Z,101694.45
2019-05-30T12:56:32.591Z,101690.28
2019-05-30T12:59:03.056Z,101697.48
2019-05-30T13:01:33.035Z,101695.80
2019-05-30T13:04:03.317Z,101688.08
2019-05-30T13:06:33.225Z,101687.55
2019-05-30T13:09:03.386Z,101687.66
2019-05-30T13:11:33.312Z,101674.76
2019-05-30T13:14:03.089Z,101680.05
2019-05-30T13:16:33.081Z,101684.42
2019-05-30T13:19:02.679Z,101676.42
2019-05-30T13:21:32.404Z,101672.42
2019-05-30T13:24:02.152Z,101671.66
2019-05-30T13:26:31.883Z,101677.47
2019-05-30T13:29:02.311Z,101678.66
2019-05-30T13:31:32.116Z,101678.17
2019-05-30T13:34:02.798Z,101667.05
2019-05-30T13:36:32.749Z,101671.41
2019-05-30T13:39:03.252Z,101666.31
2019-05-30T13:41:32.959Z,101667.19
2019-05-30T13:44:06.045Z,101671.23
2019-05-30T13:46:33.973Z,101671.23
2019-05-30T13:49:04.783Z,101671.59
2019-05-30T13:51:34.454Z,101668.35
2019-05-30T13:54:05.211Z,101670.53
2019-05-30T13:56:35.223Z,101659.95
2019-05-30T13:59:05.978Z,101659.02
2019-05-30T14:01:35.905Z,101657.88
2019-05-30T14:04:06.326Z,101654.55
2019-05-30T14:06:36.074Z,101658.01
2019-05-30T14:09:08.566Z,101652.89
2019-05-30T14:11:38.373Z,101649.97
2019-05-30T14:14:08.900Z,101648.55
2019-05-30T14:16:38.852Z,101647.55
2019-05-30T14:19:11.097Z,101648.48
2019-05-30T14:21:40.255Z,101641.05
2019-05-30T14:24:09.837Z,101641.27
2019-05-30T14:26:39.434Z,101651.15
2019-05-30T14:29:09.850Z,101640.39
2019-05-30T14:31:39.892Z,101646.20
2019-05-30T14:34:10.200Z,101635.31
2019-05-30T14:36:40.060Z,101647.84
2019-05-30T14:39:09.645Z,101636.96
2019-05-30T14:41:39.279Z,101636.66
2019-05-30T14:44:08.867Z,101643.36
2019-05-30T14:46:38.458Z,101642.36
2019-05-30T14:49:13.902Z,101641.84
2019-05-30T14:51:42.767Z,101633.08
2019-05-30T14:54:13.170Z,101635.08
2019-05-30T14:56:43.634Z,101627.83
2019-05-30T14:59:13.625Z,101632.02
2019-05-30T15:01:43.296Z,101640.09
2019-05-30T15:04:13.439Z,101639.72
2019-05-30T15:06:43.090Z,101634.07
2019-05-30T15:09:22.412Z,101635.88
2019-05-30T15:11:44.088Z,101636.33
2019-05-30T15:14:13.684Z,101630.02
2019-05-30T15:16:43.305Z,101634.30
2019-05-30T15:19:12.922Z,101636.00
2019-05-30T15:21:42.531Z,101635.51
2019-05-30T15:24:12.784Z,101625.40
2019-05-30T15:26:43.015Z,101633.63
2019-05-30T15:29:12.657Z,101627.50
2019-05-30T15:31:43.807Z,101629.46
2019-05-30T15:34:14.622Z,101629.10
2019-05-30T15:36:44.580Z,101627.39
2019-05-30T15:39:15.063Z,101626.15
2019-05-30T15:41:45.479Z,101632.38
2019-05-30T15:44:15.757Z,101625.19
2019-05-30T15:46:45.442Z,101619.41
2019-05-30T15:49:15.036Z,101611.55
2019-05-30T15:51:44.995Z,101619.20
2019-05-30T15:54:15.058Z,101626.44
2019-05-30T15:56:44.823Z,101621.55
2019-05-30T15:59:15.757Z,101615.04
2019-05-30T16:01:45.671Z,101611.02
2019-05-30T16:04:16.334Z,101609.63
2019-05-30T16:06:45.948Z,101610.72
2019-05-30T16:09:16.698Z,101603.86
2019-05-30T16:11:46.497Z,101599.48
2019-05-30T16:14:17.341Z,101609.31
2019-05-30T16:16:47.171Z,101598.16
2019-05-30T16:19:21.962Z,101609.24
2019-05-30T16:21:48.374Z,101604.66
2019-05-30T16:24:18.522Z,101605.10
2019-05-30T16:26:48.167Z,101596.84
2019-05-30T16:29:17.774Z,101605.70
2019-05-30T16:31:47.745Z,101597.19
2019-05-30T16:34:18.042Z,101587.72
2019-05-30T16:36:47.720Z,101590.99
2019-05-30T16:39:18.176Z,101595.87
2019-05-30T16:41:47.798Z,101596.52
2019-05-30T16:44:18.465Z,101588.63
2019-05-30T16:46:48.302Z,101591.08
2019-05-30T16:49:18.522Z,101588.55
2019-05-30T16:51:48.407Z,101594.38
2019-05-30T16:54:19.189Z,101593.14
2019-05-30T16:56:48.920Z,101591.79
2019-05-30T16:59:18.641Z,101591.36
2019-05-30T17:01:57.308Z,101595.06
2019-05-30T17:04:20.966Z,101596.67
2019-05-30T17:06:50.737Z,101587.38
2019-05-30T17:09:21.628Z,101588.98
2019-05-30T17:11:51.530Z,101597.20
2019-05-30T17:14:21.832Z,101598.02
2019-05-30T17:16:51.627Z,101599.55
2019-05-30T17:19:22.362Z,101593.89
2019-05-30T17:21:52.044Z,101594.53
2019-05-30T17:24:22.939Z,101589.36
2019-05-30T17:26:52.774Z,101587.88
2019-05-30T17:29:23.482Z,101587.38
2019-05-30T17:31:54.828Z,101586.63
2019-05-30T17:34:24.452Z,101581.83
2019-05-30T17:36:54.047Z,101582.94
2019-05-30T17:39:24.552Z,101588.53
2019-05-30T17:41:54.157Z,101589.58
2019-05-30T17:44:25.090Z,101586.09
2019-05-30T17:46:54.999Z,101587.30
2019-05-30T17:49:25.830Z,101586.84
2019-05-30T17:51:55.779Z,101587.80
2019-05-30T17:54:25.986Z,101582.35
2019-05-30T17:56:55.566Z,101580.64
2019-05-30T17:59:26.343Z,101581.08
2019-05-30T18:01:56.431Z,101590.19
2019-05-30T18:04:26.537Z,101589.37
2019-05-30T18:06:56.107Z,101579.89
2019-05-30T18:09:27.087Z,101593.14
2019-05-30T18:11:56.877Z,101591.14
2019-05-30T18:14:27.178Z,101582.11
2019-05-30T18:16:57.085Z,101589.81
2019-05-30T18:19:27.359Z,101590.92
2019-05-30T18:21:57.164Z,101591.28
2019-05-30T18:24:27.736Z,101586.34
2019-05-30T18:26:57.642Z,101598.30
2019-05-30T18:29:28.113Z,101592.53
2019-05-30T18:31:58.021Z,101592.98
2019-05-30T18:34:28.426Z,101594.30
2019-05-30T18:36:58.505Z,101593.48
2019-05-30T18:39:28.645Z,101598.47
2019-05-30T18:41:58.383Z,101593.66
2019-05-30T18:44:31.276Z,101605.31
2019-05-30T18:46:59.558Z,101604.49
2019-05-30T18:49:29.161Z,101604.20
2019-05-30T18:51:58.769Z,101603.02
2019-05-30T18:54:28.554Z,101607.36
2019-05-30T18:56:58.433Z,101609.42
2019-05-30T18:59:29.033Z,101604.12
2019-05-30T19:01:58.898Z,101609.16
2019-05-30T19:04:29.503Z,101617.34
2019-05-30T19:06:59.367Z,101612.09
2019-05-30T19:09:29.421Z,101617.72
2019-05-30T19:11:59.166Z,101612.02
2019-05-30T19:14:32.110Z,101611.66
2019-05-30T19:17:00.436Z,101615.27
2019-05-30T19:19:31.700Z,101615.46
2019-05-30T19:22:01.632Z,101607.19
2019-05-30T19:24:32.117Z,101614.53
2019-05-30T19:27:01.714Z,101606.31
2019-05-30T19:29:32.779Z,101608.01
2019-05-30T19:32:02.522Z,101608.83
2019-05-30T19:34:32.768Z,101605.12
2019-05-30T19:37:02.634Z,101609.76
2019-05-30T19:39:33.575Z,101606.11
2019-05-30T19:42:03.413Z,101607.30
2019-05-30T19:44:37.689Z,101610.18
2019-05-30T19:47:04.495Z,101609.81
2019-05-30T19:49:34.650Z,101604.51
2019-05-30T19:52:04.812Z,101607.75
2019-05-30T19:54:35.138Z,101608.31
2019-05-30T19:57:04.862Z,101604.98
2019-05-30T19:59:36.172Z,101593.66
2019-05-30T20:02:05.831Z,101595.82
2019-05-30T20:04:36.322Z,101595.41
2019-05-30T20:07:06.204Z,101606.46
2019-05-30T20:09:36.672Z,101598.20
2019-05-30T20:12:08.963Z,101597.72
2019-05-30T20:14:37.688Z,101598.97
2019-05-30T20:17:07.281Z,101593.58
2019-05-30T20:19:37.773Z,101593.97
2019-05-30T20:22:07.564Z,101598.55
2019-05-30T20:24:38.305Z,101600.20
2019-05-30T20:27:08.170Z,101595.41
2019-05-30T20:29:39.105Z,101595.05
2019-05-30T20:32:09.761Z,101593.36
2019-05-30T20:34:39.364Z,101592.95
2019-05-30T20:37:09.003Z,101597.06
2019-05-30T20:39:38.822Z,101589.30
2019-05-30T20:42:18.855Z,101588.18
2019-05-30T20:44:40.964Z,101591.88
2019-05-30T20:47:10.854Z,101594.28
2019-05-30T20:49:41.208Z,101601.65
2019-05-30T20:52:10.828Z,101587.70
2019-05-30T20:54:41.461Z,101595.08
2019-05-30T20:57:11.220Z,101592.65
2019-05-30T20:59:40.841Z,101588.18
2019-05-30T21:02:10.501Z,101581.33
2019-05-30T21:04:40.954Z,101583.78
2019-05-30T21:07:11.829Z,101593.69
2019-05-30T21:09:42.022Z,101582.28
2019-05-30T21:12:14.047Z,101581.17
2019-05-30T21:14:46.594Z,101581.86
2019-05-30T21:17:17.179Z,101586.30
2019-05-30T21:19:46.764Z,101583.38
2019-05-30T21:22:16.355Z,101584.16
2019-05-30T21:24:47.022Z,101589.45
2019-05-30T21:27:16.916Z,101576.39
2019-05-30T21:29:47.600Z,101582.92
2019-05-30T21:32:17.413Z,101580.09
2019-05-30T21:34:48.448Z,101586.58
2019-05-30T21:37:18.192Z,101581.28
2019-05-30T21:39:48.214Z,101583.38
2019-05-30T21:42:18.029Z,101591.39
2019-05-30T21:44:51.430Z,101581.28
2019-05-30T21:47:19.042Z,101580.02
2019-05-30T21:49:49.228Z,101590.20
2019-05-30T21:52:18.930Z,101586.02
2019-05-30T21:54:48.599Z,101588.89
2019-05-30T21:57:18.185Z,101582.28
2019-05-30T21:59:48.904Z,101587.20
2019-05-30T22:02:18.999Z,101585.16
2019-05-30T22:04:48.728Z,101586.34
2019-05-30T22:07:18.294Z,101585.55
2019-05-30T22:09:47.889Z,101588.43
2019-05-30T22:12:17.489Z,101594.55
2019-05-30T22:14:47.778Z,101584.69
2019-05-30T22:17:17.742Z,101587.56
2019-05-30T22:19:47.869Z,101587.98
2019-05-30T22:22:17.705Z,101580.59
2019-05-30T22:24:48.382Z,101592.09
2019-05-30T22:27:18.076Z,101579.08
2019-05-30T22:29:48.524Z,101585.27
2019-05-30T22:32:18.557Z,101581.66
2019-05-30T22:34:48.802Z,101582.14
2019-05-30T22:37:18.740Z,101580.88
2019-05-30T22:39:48.948Z,101573.90
2019-05-30T22:42:18.612Z,101572.26
2019-05-30T22:44:48.209Z,101572.66
2019-05-30T22:47:17.830Z,101578.78
2019-05-30T22:49:48.614Z,101580.02
2019-05-30T22:52:18.343Z,101577.50
2019-05-30T22:54:49.030Z,101578.45
2019-05-30T22:57:18.772Z,101575.84
2019-05-30T22:59:48.831Z,101565.33
2019-05-30T23:02:18.592Z,101575.41
2019-05-30T23:04:48.189Z,101567.91
2019-05-30T23:07:17.794Z,101574.47
2019-05-30T23:09:47.607Z,101574.80
2019-05-30T23:12:17.588Z,101566.59
2019-05-30T23:14:47.998Z,101571.55
2019-05-30T23:17:17.755Z,101567.05
2019-05-30T23:19:48.518Z,101566.18
2019-05-30T23:22:18.524Z,101564.95
2019-05-30T23:24:49.220Z,101563.75
2019-05-30T23:27:18.917Z,101569.88
2019-05-30T23:29:49.637Z,101571.93
2019-05-30T23:32:19.423Z,101558.34
2019-05-30T23:34:50.091Z,101556.28
2019-05-30T23:37:19.875Z,101557.97
2019-05-30T23:39:50.680Z,101545.65
2019-05-30T23:42:20.614Z,101566.18
2019-05-30T23:44:51.239Z,101565.33
2019-05-30T23:47:21.094Z,101558.83
2019-05-30T23:49:51.748Z,101573.23
2019-05-30T23:52:21.569Z,101568.72
2019-05-30T23:54:52.169Z,101569.55
2019-05-30T23:57:22.052Z,101558.91
2019-05-30T23:59:52.723Z,101569.14
